• Join FlightAware (Why Join?)
  • Login
  • US Flag 
02:22PM EDT


 

Airport Tracker/Info


-or-


 

Live Flight TrackerFlight Track Log ✈ N550XJ ✈ 09-May-2012 ✈ KTUS - KPWK

Flight Track Log - Related Links

Times and Time Zones

All times are in EDT time to prevent confusion due to time zone crossing. See the N550XJ flight status page for this flight to view local times or setup timezone preferences in your user account.

Time Position Orientation Groundspeed Altitude Reporting Facility
EDT Latitude Longitude Course Direction KTS MPH feet Rate Location/Type
03:50PM 32.1078 -110.9303 137° Southeast 157 181 3,200  Level Albuquerque Center
03:51PM 32.0714 -110.8897 102° East 214 246 6,200 3,480 Climbing Albuquerque Center
03:52PM 32.0533 -110.7936 91° East 283 326 10,600 3,780 Climbing Albuquerque Center
03:53PM 32.0519 -110.6956 92° East 290 334 14,600 3,540 Climbing Albuquerque Center
03:54PM 32.0486 -110.5900 99° East 302 348 17,700 2,940 Climbing Albuquerque Center
03:55PM 32.0328 -110.4744 102° East 330 380 20,500 2,400 Climbing Albuquerque Center
03:56PM 32.0108 -110.3514 87° East 360 414 22,600 2,760 Climbing Albuquerque Center
03:57PM 32.0158 -110.2389 55° Northeast 383 441 26,100 3,180 Climbing Albuquerque Center
03:58PM 32.0767 -110.1358 55° Northeast 361 415 29,000 2,220 Climbing Albuquerque Center
03:59PM 32.1417 -110.0275 56° Northeast 374 430 30,600 1,680 Climbing Albuquerque Center
04:00PM 32.2067 -109.9142 55° Northeast 405 466 32,400 1,320 Climbing Albuquerque Center
04:01PM 32.2758 -109.7961 55° Northeast 420 483 33,300 1,200 Climbing Albuquerque Center
04:02PM 32.3469 -109.6753 55° Northeast 438 504 34,800 1,260 Climbing Albuquerque Center
04:03PM 32.4225 -109.5494 56° Northeast 450 518 35,900 600 Climbing Albuquerque Center
04:04PM 32.4978 -109.4183 55° Northeast 467 537 36,000  Climbing Albuquerque Center
04:05PM 32.5750 -109.2872 55° Northeast 477 549 36,000  Level Albuquerque Center
04:06PM 32.6500 -109.1606 56° Northeast 477 549 36,100 780 Climbing Albuquerque Center
04:07PM 32.7247 -109.0292 56° Northeast 477 549 37,600 1,800 Climbing Albuquerque Center
04:08PM 32.8039 -108.8875 57° Northeast 477 549 39,800 1,560 Climbing Albuquerque Center
04:09PM 32.8742 -108.7600 54° Northeast 472 543 40,800 600 Climbing Albuquerque Center
04:10PM 32.9508 -108.6328 55° Northeast 466 536 41,000 60 Climbing Albuquerque Center
04:11PM 33.0250 -108.5050 56° Northeast 466 536 41,000  Level Albuquerque Center
04:12PM 33.0992 -108.3747 55° Northeast 466 536 41,000  Level Albuquerque Center
04:13PM 33.1669 -108.2589 54° Northeast 466 536 41,000  Level Albuquerque Center
04:14PM 33.2472 -108.1283 43° Northeast 456 525 41,000  Level Albuquerque Center
04:15PM 33.3417 -108.0222 45° Northeast 448 516 41,000  Level Albuquerque Center
04:16PM 33.4342 -107.9111 44° Northeast 448 516 41,000  Level Albuquerque Center
04:17PM 33.5264 -107.8044 45° Northeast 458 527 41,000  Level Albuquerque Center
04:18PM 33.6164 -107.6978 44° Northeast 458 527 41,000 240 Level Albuquerque Center
04:19PM 33.7083 -107.5908 46° Northeast 458 527 41,500 480 Climbing Albuquerque Center
04:20PM 33.7983 -107.4786 44° Northeast 463 533 42,000 480 Climbing Albuquerque Center
04:21PM 33.8922 -107.3686 45° Northeast 463 533 42,500 480 Climbing Albuquerque Center
04:22PM 33.9861 -107.2558 45° Northeast 463 533 43,000 240 Climbing Albuquerque Center
04:23PM 34.0778 -107.1456 46° Northeast 463 533 43,000  Level Albuquerque Center
04:24PM 34.1692 -107.0322 45° Northeast 458 527 43,000  Level Albuquerque Center
04:25PM 34.2586 -106.9239 45° Northeast 458 527 43,000  Level Albuquerque Center
04:26PM 34.3417 -106.8228 48° Northeast 458 527 43,000  Level Albuquerque Center
04:27PM 34.4247 -106.7092 43° Northeast 459 528 43,000  Level Albuquerque Center
04:28PM 34.5219 -106.5972 45° Northeast 454 522 43,000  Level Albuquerque Center
04:29PM 34.6111 -106.4906 48° Northeast 452 520 43,000  Level Albuquerque Center
04:30PM 34.6958 -106.3761 46° Northeast 460 529 43,000  Level Albuquerque Center
04:31PM 34.7867 -106.2611 46° Northeast 455 524 43,000 300 Level Albuquerque Center
04:32PM 34.8833 -106.1383 46° Northeast 455 524 43,700 600 Climbing Albuquerque Center
04:33PM 34.9700 -106.0281 46° Northeast 460 529 44,300 540 Climbing Albuquerque Center
04:34PM 35.0583 -105.9150 46° Northeast 451 519 44,800 300 Climbing Albuquerque Center
04:35PM 35.1444 -105.8067 46° Northeast 446 513 45,000 60 Climbing Albuquerque Center
04:36PM 35.2328 -105.6931 48° Northeast 446 513 45,000  Level Albuquerque Center
04:37PM 35.3189 -105.5767 47° Northeast 451 519 45,000  Level Albuquerque Center
04:38PM 35.3964 -105.4756 48° Northeast 451 519 45,000  Level Albuquerque Center
04:39PM 35.4781 -105.3642 45° Northeast 451 519 45,000  Level Albuquerque Center
04:40PM 35.5803 -105.2389 47° Northeast 451 519 45,000  Level Albuquerque Center
04:41PM 35.6597 -105.1344 55° Northeast 461 531 45,000  Level Albuquerque Center
04:42PM 35.7325 -105.0044 57° Northeast 461 531 45,000  Level Albuquerque Center
04:43PM 35.8028 -104.8719 59° Northeast 461 531 45,000  Level Albuquerque Center
04:44PM 35.8686 -104.7339 59° Northeast 461 531 45,000  Level Albuquerque Center
04:45PM 35.9425 -104.5828 60° Northeast 461 531 45,000  Level Albuquerque Center
04:46PM 36.0081 -104.4442 59° Northeast 461 531 45,000  Level Albuquerque Center
04:47PM 36.0736 -104.3083 59° Northeast 461 531 45,000  Level Albuquerque Center
04:48PM 36.1408 -104.1719 60° Northeast 461 531 45,000  Level Albuquerque Center
04:49PM 36.2061 -104.0303 60° Northeast 461 531 45,000  Level Albuquerque Center
04:50PM 36.2708 -103.8936 60° Northeast 461 531 45,000  Level Albuquerque Center
04:51PM 36.3356 -103.7539 59° Northeast 461 531 45,000  Level Albuquerque Center
04:52PM 36.3944 -103.6325 59° Northeast 461 531 45,000  Level Albuquerque Center
04:53PM 36.4611 -103.4925 60° Northeast 460 529 45,000  Level Albuquerque Center
04:54PM 36.5253 -103.3525 61° Northeast 466 536 45,000  Level Albuquerque Center
04:55PM 36.5950 -103.1961 59° Northeast 471 542 45,000  Level Albuquerque Center
04:56PM 36.6553 -103.0711 61° Northeast 471 542 45,000  Level Albuquerque Center
04:58PM 36.7797 -102.7950 61° Northeast 457 526 45,000  Level Kansas City Center
04:59PM 36.8364 -102.6686 60° Northeast 457 526 45,000  Level Kansas City Center
05:00PM 36.9078 -102.5125 61° Northeast 462 532 45,000  Level Kansas City Center
05:01PM 36.9714 -102.3711 61° Northeast 462 532 45,000  Level Kansas City Center
05:02PM 37.0350 -102.2292 61° Northeast 467 537 45,000  Level Kansas City Center
05:03PM 37.0936 -102.0969 61° Northeast 467 537 45,000  Level Kansas City Center
05:04PM 37.1639 -101.9397 61° Northeast 467 537 45,000  Level Kansas City Center
05:05PM 37.2269 -101.7972 60° Northeast 462 532 45,000  Level Kansas City Center
05:06PM 37.2919 -101.6547 61° Northeast 462 532 45,000  Level Kansas City Center
05:07PM 37.3478 -101.5267 61° Northeast 462 532 45,000  Level Kansas City Center
05:08PM 37.4175 -101.3683 61° Northeast 461 531 45,000  Level Kansas City Center
05:09PM 37.4800 -101.2247 61° Northeast 461 531 45,000  Level Kansas City Center
05:10PM 37.5397 -101.0858 62° Northeast 461 531 45,000  Level Kansas City Center
05:11PM 37.6019 -100.9392 62° Northeast 466 536 45,000  Level Kansas City Center
05:12PM 37.6667 -100.7847 60° Northeast 474 545 45,000  Level Kansas City Center
05:13PM 37.7253 -100.6583 62° Northeast 484 557 45,000  Level Kansas City Center
05:14PM 37.7917 -100.5033 62° Northeast 472 543 45,000  Level Kansas City Center
05:15PM 37.8531 -100.3583 62° Northeast 466 536 45,000  Level Kansas City Center
05:16PM 37.9075 -100.2283 61° Northeast 461 531 45,000  Level Kansas City Center
05:17PM 37.9706 -100.0831 63° Northeast 466 536 45,000  Level Kansas City Center
05:18PM 38.0364 -99.9217 62° Northeast 461 531 45,000  Level Kansas City Center
05:19PM 38.0972 -99.7783 63° Northeast 461 531 45,000  Level Kansas City Center
05:20PM 38.1508 -99.6447 60° Northeast 461 531 45,000  Level Kansas City Center
05:21PM 38.2156 -99.5014 63° Northeast 461 531 45,000  Level Kansas City Center
05:22PM 38.2736 -99.3569 63° Northeast 461 531 45,000  Level Kansas City Center
05:23PM 38.3336 -99.2075 62° Northeast 461 531 45,000  Level Kansas City Center
05:24PM 38.3958 -99.0578 63° Northeast 461 531 45,000  Level Kansas City Center
05:25PM 38.4556 -98.9075 63° Northeast 467 537 45,000  Level Kansas City Center
05:26PM 38.5200 -98.7469 63° Northeast 461 531 45,000  Level Kansas City Center
05:27PM 38.5794 -98.5961 62° Northeast 461 531 45,000  Level Kansas City Center
05:28PM 38.6406 -98.4481 63° Northeast 467 537 45,000  Level Kansas City Center
05:29PM 38.6994 -98.3022 63° Northeast 462 532 45,000  Level Kansas City Center
05:30PM 38.7564 -98.1561 64° Northeast 462 532 45,000  Level Kansas City Center
05:31PM 38.8128 -98.0097 63° Northeast 462 532 45,000  Level Kansas City Center
05:32PM 38.8736 -97.8553 64° Northeast 462 532 45,000  Level Kansas City Center
05:33PM 38.9297 -97.7083 63° Northeast 462 532 45,000  Level Kansas City Center
05:34PM 38.9833 -97.5719 64° Northeast 462 532 45,000  Level Kansas City Center
05:35PM 39.0411 -97.4192 63° Northeast 467 537 45,000  Level Kansas City Center
05:36PM 39.0989 -97.2717 63° Northeast 468 539 45,000  Level Kansas City Center
05:37PM 39.1586 -97.1186 64° Northeast 468 539 45,000  Level Kansas City Center
05:38PM 39.2206 -96.9522 62° Northeast 463 533 45,000  Level Kansas City Center
05:39PM 39.2842 -96.7961 66° East 475 547 45,000  Level Kansas City Center
05:40PM 39.3325 -96.6581 65° Northeast 475 547 45,000  Level Kansas City Center
05:41PM 39.3939 -96.4853 64° Northeast 482 555 45,000  Level Kansas City Center
05:42PM 39.4503 -96.3336 64° Northeast 475 547 45,000  Level Kansas City Center
05:43PM 39.5089 -96.1764 64° Northeast 475 547 45,000  Level Kansas City Center
05:44PM 39.5650 -96.0297 64° Northeast 468 539 45,000  Level Kansas City Center
05:45PM 39.6189 -95.8853 65° Northeast 468 539 45,000  Level Kansas City Center
05:46PM 39.6747 -95.7328 65° Northeast 473 544 45,000  Level Kansas City Center
05:47PM 39.7369 -95.5583 66° East 479 551 45,000  Level Kansas City Center
05:48PM 39.7922 -95.3997 65° Northeast 479 551 45,000  Level Kansas City Center
05:49PM 39.8475 -95.2439 65° Northeast 479 551 45,000  Level Kansas City Center
05:50PM 39.8983 -95.1036 65° Northeast 479 551 45,000  Level Kansas City Center
05:51PM 39.9594 -94.9283 67° East 479 551 45,000  Level Kansas City Center
05:52PM 40.0119 -94.7686 64° Northeast 479 551 45,000  Level Kansas City Center
05:53PM 40.0686 -94.6172 67° East 479 551 45,000  Level Kansas City Center
05:54PM 40.1164 -94.4706 67° East 479 551 45,000  Level Kansas City Center
05:55PM 40.1747 -94.2942 67° East 484 557 45,000  Level Kansas City Center
05:56PM 40.2264 -94.1336 65° Northeast 479 551 45,000  Level Kansas City Center
05:57PM 40.2758 -93.9919 66° East 479 551 45,000  Level Kansas City Center
05:59PM 40.3889 -93.6519 66° East 499 574 45,000  Level Chicago Center
06:00PM 40.4428 -93.4944 63° Northeast 488 562 45,000  Level Chicago Center
06:01PM 40.5025 -93.3397 54° Northeast 477 549 45,000  Level Chicago Center
06:02PM 40.5803 -93.1994 55° Northeast 472 543 45,000  Level Chicago Center
06:03PM 40.6561 -93.0561 55° Northeast 472 543 45,000 -540 Level Chicago Center
06:04PM 40.7314 -92.9150 55° Northeast 472 543 44,000 -1,020 Descending Chicago Center
06:05PM 40.8067 -92.7736 56° Northeast 477 549 43,000 -1,080 Descending Chicago Center
06:06PM 40.8775 -92.6344 54° Northeast 477 549 41,900 -1,020 Descending Chicago Center
06:07PM 40.9500 -92.5006 56° Northeast 465 535 41,000 -1,020 Descending Chicago Center
06:08PM 41.0206 -92.3608 54° Northeast 460 529 39,900 -1,260 Descending Chicago Center
06:09PM 41.0928 -92.2264 56° Northeast 447 514 38,500 -1,380 Descending Chicago Center
06:10PM 41.1608 -92.0914 54° Northeast 442 509 37,200 -1,320 Descending Chicago Center
06:11PM 41.2306 -91.9619 57° Northeast 442 509 35,900 -1,320 Descending Chicago Center
06:12PM 41.2983 -91.8208 55° Northeast 436 502 34,600 -1,320 Descending Chicago Center
06:13PM 41.3678 -91.6906 56° Northeast 436 502 33,300 -1,200 Descending Chicago Center
06:14PM 41.4372 -91.5519 56° Northeast 436 502 32,200 -600 Descending Chicago Center
06:16PM 41.5217 -91.3828 55° Northeast 442 509 32,000 -120 Descending Chicago Center
06:17PM 41.5928 -91.2461 56° Northeast 447 514 32,000  Level Chicago Center
06:18PM 41.6639 -91.1067 56° Northeast 447 514 32,000 -840 Level Chicago Center
06:19PM 41.7325 -90.9719 57° Northeast 447 514 30,400 -2,040 Descending Chicago Center
06:20PM 41.8011 -90.8317 56° Northeast 447 514 28,000 -2,220 Descending Chicago Center
06:21PM 41.8672 -90.6994 59° Northeast 441 507 25,600 -2,280 Descending Chicago Center
06:22PM 41.9442 -90.5253 74° East 420 483 23,000 -2,520 Descending Chicago Center
06:23PM 41.9750 -90.3778 73° East 408 470 20,600 -2,280 Descending Chicago Center
06:24PM 42.0072 -90.2358 73° East 403 464 18,500 -2,100 Descending Chicago Center
06:25PM 42.0397 -90.0936 75° East 398 458 16,500 -1,980 Descending Chicago Center
06:26PM 42.0675 -89.9569 75° East 390 449 14,600 -1,500 Descending Chicago Center
06:27PM 42.0931 -89.8256 73° East 373 429 13,600 -1,320 Descending Chicago Center
06:28PM 42.1228 -89.6942 73° East 359 413 12,000 -1,500 Descending Chicago Center
06:29PM 42.1503 -89.5711 76° East 354 407 10,600 -1,020 Descending Chicago Center
06:30PM 42.1733 -89.4422 73° East 349 402 10,000 -480 Descending Chicago Center
06:31PM 42.1983 -89.3331 74° East 324 373 9,700 -840 Descending Chicago Center
06:32PM 42.2192 -89.2350 74° East 280 322 8,400 -900 Descending Chicago Center
06:33PM 42.2397 -89.1367 76° East 270 311 8,000 -300 Descending Chicago Center
06:34PM 42.2583 -89.0356 72° East 265 305 7,800 -900 Descending Chicago Center
06:35PM 42.2872 -88.9178 75° East 265 305 6,100 -1,320 Descending Chicago Center
06:36PM 42.3014 -88.8444 81° East 257 296 5,200 -360 Descending Chicago Center
06:38PM 42.3333 -88.5833 90° East 272 313 5,000 -180 Descending Chicago TRACON
06:39PM 42.3333 -88.5000 90° East 267 307 4,800 -900 Descending Chicago TRACON
06:40PM 42.3333 -88.4000 75° East 250 288 3,300 -900 Descending Chicago TRACON
06:41PM 42.3500 -88.3167 90° East 218 251 3,000 -180 Descending Chicago TRACON
06:42PM 42.3500 -88.2500 114° Southeast 212 244 3,000 -300 Level Chicago TRACON
06:43PM 42.3167 -88.1500 90° East 206 237 2,500 -300 Descending Chicago TRACON
06:44PM 42.3167 -88.1000 109° East 200 230 2,500  Level Chicago TRACON
06:45PM 42.3000 -88.0333 135° Southeast 195 224 2,500  Level Chicago TRACON
06:46PM 42.2500 -87.9667 135° Southeast 176 203 2,500  Level Chicago TRACON